Callahan, California
Current Conditions -  °F | °C
As of 11:10 PM on Sunday 21 Dec 2014 (Local Time) from KO86 Reporting Station
Overcast Overcast  
Wind Chill: 48°   Ceiling: 200
Heat Index: 48°   Visibility: 0.5mi
Dew Point: 46°   Wind: 0mph
Humidity: 93%   Direction: NA
Pressure: 30.29"   Gusts: NA
Location:  41.31°N, 122.8°W
Report Text: KO86 220710Z AUTO 00000KT 1/2SM OVC002 09/08 A3029 RMK AO1
Loading
Personal Weather Stations






























Interactive Weather Map New forecast layout! Learn more

10-Day Weather Forecast

Advertisements
Track Severe Weather on mobile